Home > Products > Valid Products > MTR

000
SAUS43 KABR 300700
MTR8D3
METAR K8D3 300656Z AUTO 00000KT 12/11 A3012 RMK AO1 SLP190 T01170111





000
SAUS43 KABR 300559
MTR8D3
METAR K8D3 300556Z AUTO 00000KT 13/12 A3012 RMK AO1 SLP190 T01330122
10244 20133 402560100 51007





000
SAUS43 KABR 300459
MTR8D3
METAR K8D3 300456Z AUTO 00000KT 14/13 A3012 RMK AO1 SLP188 T01390128





000
SAUS43 KABR 300359
MTR8D3
METAR K8D3 300356Z AUTO 00000KT 14/13 A3011 RMK AO1 SLP187 T01390128





000
SAUS43 KABR 300259
MTR8D3
METAR K8D3 300256Z AUTO 28003KT 16/13 A3010 RMK AO1 SLP182 T01610133
53000





000
SAUS43 KABR 300159
MTR8D3
METAR K8D3 300156Z AUTO 31003KT 20/15 A3008 RMK AO1 SLP175 T02000150





000
SAUS43 KABR 300059
MTR8D3
METAR K8D3 300056Z AUTO 35004KT 23/14 A3009 RMK AO1 SLP179 T02280144





000
SAUS43 KABR 300000
MTR8D3
METAR K8D3 292356Z AUTO 35007KT 24/13 A3010 RMK AO1 SLP182 T02390128
10256 20228 56016





000
SAUS43 KABR 292300
MTR8D3
METAR K8D3 292256Z AUTO VRB06KT 25/12 A3011 RMK AO1 SLP187 T02500122





000
SAUS43 KABR 292159
MTR8D3
METAR K8D3 292156Z AUTO 33004KT 26/12 A3013 RMK AO1 SLP193 T02560122





000
SAUS43 KABR 292100
MTR8D3
METAR K8D3 292056Z AUTO 36006KT 23/13 A3015 RMK AO1 SLP200 T02330128
57009





000
SAUS43 KABR 292000
MTR8D3
METAR K8D3 291956Z AUTO VRB03KT 25/12 A3016 RMK AO1 SLP202 T02500117





000
SAUS43 KABR 291900
MTR8D3
METAR K8D3 291856Z AUTO 36008KT 24/13 A3016 RMK AO1 SLP205 T02390128





000
SAUS43 KABR 291759
MTR8D3
METAR K8D3 291756Z AUTO 02009KT 24/12 A3018 RMK AO1 SLP208 T02390122
10239 20122 58008





000
SAUS43 KABR 291659
MTR8D3
METAR K8D3 291656Z AUTO 02008KT 23/13 A3019 RMK AO1 SLP214 T02280128





000
SAUS43 KABR 291600
MTR8D3
METAR K8D3 291556Z AUTO 22/13 A3020 RMK AO1 SLP216 T02220133





000
SAUS43 KABR 291459
MTR8D3
METAR K8D3 291456Z AUTO 21/14 A3020 RMK AO1 SLP216 T02110139 50003





000
SAUS43 KABR 291359
MTR8D3
METAR K8D3 291356Z AUTO 35007KT 19/14 A3020 RMK AO1 SLP216 T01940144





000
SAUS43 KABR 291259
MTR8D3
METAR K8D3 291256Z AUTO 34004KT 16/14 A3020 RMK AO1 SLP215 T01610139





000
SAUS43 KABR 291200
MTR8D3
METAR K8D3 291156Z AUTO 33005KT 12/11 A3019 RMK AO1 SLP215 T01220111
10128 20100 53001





000
SAUS43 KABR 291059
MTR8D3
METAR K8D3 291056Z AUTO 35003KT 11/10 A3018 RMK AO1 SLP215 T01060100





000
SAUS43 KABR 290959
MTR8D3
METAR K8D3 290956Z AUTO 00000KT 10/10 A3019 RMK AO1 SLP215 T01000100





000
SAUS43 KABR 290859
MTR8D3
METAR K8D3 290856Z AUTO 00000KT 11/10 A3019 RMK AO1 SLP216 T01060100
58005





000
SAUS43 KABR 290759
MTR8D3
METAR K8D3 290756Z AUTO 30003KT 12/11 A3019 RMK AO1 SLP217 T01170111





000
SAUS43 KABR 290659
MTR8D3
METAR K8D3 290656Z AUTO 00000KT 11/11 A3020 RMK AO1 SLP218 T01110106





000
SAUS43 KABR 290557
MTR8D3
METAR K8D3 290556Z AUTO 30003KT 12/11 A3020 RMK AO1 SLP219 T01220111
10217 20117 402280117 53000





000
SAUS43 KABR 290457
MTR8D3
METAR K8D3 290456Z AUTO 30003KT 12/12 A3020 RMK AO1 SLP218 T01220117





000
SAUS43 KABR 290357
MTR8D3
METAR K8D3 290356Z AUTO 31003KT 14/12 A3020 RMK AO1 SLP219 T01390122





000
SAUS43 KABR 290257
MTR8D3
METAR K8D3 290256Z AUTO 30004KT 15/13 A3020 RMK AO1 SLP219 T01500128
55003





000
SAUS43 KABR 290157
MTR8D3
METAR K8D3 290156Z AUTO 30003KT 17/14 A3020 RMK AO1 SLP216 T01720139





000
SAUS43 KABR 290057
MTR8D3
METAR K8D3 290056Z AUTO 35004KT 21/13 A3020 RMK AO1 SLP216 T02060128





000
SAUS43 KABR 282357
MTR8D3
METAR K8D3 282356Z AUTO 34006KT 22/13 A3021 RMK AO1 SLP220 T02170128
10228 20206 58014





000
SAUS43 KABR 282257
MTR8D3
METAR K8D3 282256Z AUTO 34008KT 21/12 A3023 RMK AO1 SLP226 T02110117





000
SAUS43 KABR 282157
MTR8D3
METAR K8D3 282156Z AUTO 35006KT 22/11 A3024 RMK AO1 SLP232 T02170111





000
SAUS43 KABR 282057
MTR8D3
METAR K8D3 282056Z AUTO 36005KT 22/11 A3025 RMK AO1 SLP234 T02170106
56002





000
SAUS43 KABR 281957
MTR8D3
METAR K8D3 281956Z AUTO 04008KT 22/11 A3026 RMK AO1 SLP235 T02170106





000
SAUS43 KABR 281857
MTR8D3
METAR K8D3 281856Z AUTO 04010KT 22/11 A3025 RMK AO1 SLP234 T02220106





000
SAUS43 KABR 281757
MTR8D3
METAR K8D3 281756Z AUTO 02011G17KT 22/10 A3026 RMK AO1 SLP237
T02170100 10228 20156 58008





000
SAUS43 KABR 281657
MTR8D3
METAR K8D3 281656Z AUTO 02008KT 22/13 A3027 RMK AO1 SLP241 T02170128





000
SAUS43 KABR 281557
MTR8D3
METAR K8D3 281556Z AUTO 36008KT 21/14 A3028 RMK AO1 SLP244 T02060139





000
SAUS43 KABR 281457
MTR8D3
METAR K8D3 281456Z AUTO 35009KT 19/14 A3028 RMK AO1 SLP246 T01890139
51007





000
SAUS43 KABR 281357
MTR8D3
METAR K8D3 281356Z AUTO 36009KT 18/14 A3028 RMK AO1 SLP243 T01830144





000
SAUS43 KABR 281257
MTR8D3
METAR K8D3 281256Z AUTO 34009KT 16/14 A3027 RMK AO1 SLP242 T01610144





000
SAUS43 KABR 281157
MTR8D3
METAR K8D3 281156Z AUTO 34008KT 16/14 A3026 RMK AO1 SLP238 T01560144
10156 20133 53008





000
SAUS43 KABR 281057
MTR8D3
METAR K8D3 281056Z AUTO 34007KT 16/14 A3025 RMK AO1 SLP235 T01560144





000
SAUS43 KABR 280957
MTR8D3
METAR K8D3 280956Z AUTO 34007KT 16/14 A3024 RMK AO1 SLP233 T01560144





000
SAUS43 KABR 280857
MTR8D3
METAR K8D3 280856Z AUTO 32008KT 16/14 A3024 RMK AO1 SLP230 T01560144
53006





000
SAUS43 KABR 280757
MTR8D3
METAR K8D3 280756Z AUTO 33006KT 15/14 A3023 RMK AO1 SLP228 T01500139





000
SAUS43 KABR 280657
MTR8D3
METAR K8D3 280656Z AUTO 34005KT 14/14 A3022 RMK AO1 SLP225 T01440139





000
SAUS43 KABR 280557
MTR8D3
METAR K8D3 280556Z AUTO 35006KT 13/13 A3022 RMK AO1 SLP227 T01330128
10200 20133 402110133 53009





000
SAUS43 KABR 280458
MTR8D3
METAR K8D3 280456Z AUTO 33005KT 13/13 A3021 RMK AO1 SLP223 T01330128





000
SAUS43 KABR 280357
MTR8D3
METAR K8D3 280356Z AUTO 35006KT 14/13 A3020 RMK AO1 SLP219 T01390133





000
SAUS43 KABR 280257
MTR8D3
METAR K8D3 280256Z AUTO 34006KT 16/13 A3019 RMK AO1 SLP217 T01560133
53009





000
SAUS43 KABR 280157
MTR8D3
METAR K8D3 280156Z AUTO 36008KT 18/13 A3018 RMK AO1 SLP210 T01830133





000
SAUS43 KABR 280057
MTR8D3
METAR K8D3 280056Z AUTO 01010KT 19/13 A3017 RMK AO1 SLP207 T01890133





000
SAUS43 KABR 272357
MTR8D3
METAR K8D3 272356Z AUTO 01015G20KT 20/14 A3016 RMK AO1 SLP204
T02000139 10211 20183 51006





000
SAUS43 KABR 272257
MTR8D3
METAR K8D3 272256Z AUTO 36014KT 19/14 A3016 RMK AO1 SLP205 T01940144





000
SAUS43 KABR 272157
MTR8D3
METAR K8D3 272156Z AUTO 36012KT 18/14 A3016 RMK AO1 SLP203 T01830139





000
SAUS43 KABR 272057
MTR8D3
METAR K8D3 272056Z AUTO 36016KT 19/14 A3015 RMK AO1 SLP198 T01940139
53014





000
SAUS43 KABR 271957
MTR8D3
METAR K8D3 271956Z AUTO 36015KT 19/14 A3013 RMK AO1 SLP192 T01940139





000
SAUS43 KABR 271857
MTR8D3
METAR K8D3 271856Z AUTO 34020G24KT 19/14 A3011 RMK AO1 SLP186
T01940144





000
SAUS43 KABR 271757
MTR8D3
METAR K8D3 271756Z AUTO 34017G21KT 18/14 A3010 RMK AO1 SLP183
T01830139 10189 20167 51021





000
SAUS43 KABR 271657
MTR8D3
METAR K8D3 271656Z AUTO 34018G25KT 18/13 A3009 RMK AO1 PK WND
34028/1624 SLP177 T01830133





000
SAUS43 KABR 271557
MTR8D3
METAR K8D3 271556Z AUTO 34020G28KT 18/14 A3006 RMK AO1 PK WND
33029/1533 SLP168 T01830139





000
SAUS43 KABR 271457
MTR8D3
METAR K8D3 271456Z AUTO 35020G27KT 18/14 A3004 RMK AO1 PK WND
36028/1438 SLP160 T01780139 51027





000
SAUS43 KABR 271357
MTR8D3
METAR K8D3 271356Z AUTO 34017G24KT 17/14 A3001 RMK AO1 PK WND
33026/1304 SLP151 T01720139





000
SAUS43 KABR 271257
MTR8D3
METAR K8D3 271256Z AUTO 33017G22KT 17/13 A2999 RMK AO1 PK WND
33027/1203 SLP142 T01670133





000
SAUS43 KABR 271157
MTR8D3
METAR K8D3 271156Z AUTO 34018G30KT 17/13 A2995 RMK AO1 PK WND
33030/1148 SLP128 T01670133 10194 20156 53019





000
SAUS43 KABR 271058
MTR8D3
METAR K8D3 271056Z AUTO 33015KT 16/13 A2993 RMK AO1 SLP120 T01560133





000
SAUS43 KABR 270957
MTR8D3
METAR K8D3 270956Z AUTO 33016G23KT 16/14 A2991 RMK AO1 SLP111
T01610139





000
SAUS43 KABR 270857
MTR8D3
METAR K8D3 270856Z AUTO 34014KT 17/14 A2990 RMK AO1 SLP106 T01670139
51012





000
SAUS43 KABR 270757
MTR8D3
METAR K8D3 270756Z AUTO 32014G24KT 18/14 A2989 RMK AO1 SLP102
T01780139





    US Dept of Commerce
    National Oceanic and Atmospheric Administration
    National Weather Service
    1325 East West Highway
    Silver Spring, MD 20910
    Page Author: NWS Internet Services Team
Disclaimer
Information Quality
Credits
Glossary
Privacy Policy
Freedom of Information Act (FOIA)
About Us
Career Opportunities